Time;durP1;ratioP1;P1;durP2;ratioP2;P2;SDS_P1;SDS_P2;PMS_P1;PMS_P2;Temp;Humidity;BMP_temperature;BMP_pressure;BME280_temperature;BME280_humidity;BME280_pressure;Samples;Min_cycle;Max_cycle;Signal;HPM_P1;HPM_P2
2022/11/26 00:01:22;;;;;;;0.75;0.52;;;4.90;99.90;;;;;;5040308;28;20097;-86
2022/11/26 00:03:50;;;;;;;0.30;0.30;;;4.90;99.90;;;;;;5024094;28;20048;-86
2022/11/26 00:06:32;;;;;;;3.13;1.42;;;4.80;99.90;;;;;;5039846;28;20402;-87
2022/11/26 00:09:01;;;;;;;0.40;0.40;;;4.80;99.90;;;;;;5057184;28;20084;-87
2022/11/26 00:11:29;;;;;;;0.82;0.50;;;5.30;99.90;;;;;;5040569;28;20052;-86
2022/11/26 00:13:55;;;;;;;1.88;0.38;;;4.80;99.90;;;;;;5039892;28;20540;-86
2022/11/26 00:16:21;;;;;;;0.40;0.40;;;4.80;99.90;;;;;;5055935;28;20044;-85
2022/11/26 00:18:49;;;;;;;1.10;0.70;;;4.70;99.90;;;;;;5039958;28;20044;-87
2022/11/26 00:21:23;;;;;;;1.10;0.77;;;4.80;99.90;;;;;;5023726;28;20090;-86
2022/11/26 00:23:50;;;;;;;0.30;0.30;;;4.70;99.90;;;;;;5040170;28;20114;-87
2022/11/26 00:26:21;;;;;;;0.82;0.65;;;5.00;99.90;;;;;;5056202;28;20041;-85
2022/11/26 00:28:55;;;;;;;0.20;0.20;;;6.10;99.90;;;;;;5039986;28;20514;-85
2022/11/26 00:31:27;;;;;;;0.88;0.52;;;4.70;99.90;;;;;;5039516;28;20533;-85
2022/11/26 00:33:53;;;;;;;1.33;0.88;;;5.20;99.90;;;;;;5039695;28;20131;-86
2022/11/26 00:36:26;;;;;;;1.37;0.60;;;4.80;99.90;;;;;;5039594;28;20214;-86
2022/11/26 00:38:57;;;;;;;0.25;0.25;;;5.10;99.90;;;;;;5056659;28;20411;-86
2022/11/26 00:41:29;;;;;;;0.63;0.63;;;6.00;99.90;;;;;;5039567;28;20105;-88
2022/11/26 00:43:57;;;;;;;0.45;0.45;;;6.10;99.90;;;;;;5056218;28;20486;-86
2022/11/26 00:46:23;;;;;;;0.35;0.35;;;4.60;99.90;;;;;;5039125;28;20057;-86
2022/11/26 00:48:50;;;;;;;0.35;0.35;;;6.00;99.90;;;;;;5056616;28;20064;-86
2022/11/26 00:51:31;;;;;;;;;;;5.40;99.90;;;;;;5056517;28;20044;-86
2022/11/26 00:54:04;;;;;;;0.15;0.15;;;4.70;99.90;;;;;;5039199;28;19920;-86
2022/11/26 00:56:32;;;;;;;0.28;0.25;;;4.70;99.90;;;;;;5055617;28;20044;-86
2022/11/26 00:58:58;;;;;;;0.47;0.47;;;5.40;99.90;;;;;;5056248;28;20645;-86
2022/11/26 01:01:30;;;;;;;2.20;0.67;;;4.70;99.90;;;;;;5022762;28;20131;-86
2022/11/26 01:03:58;;;;;;;0.43;0.30;;;5.90;99.90;;;;;;5038992;28;20080;-86
2022/11/26 01:06:37;;;;;;;0.30;0.30;;;4.70;99.90;;;;;;5038334;28;20092;-86
2022/11/26 01:09:12;;;;;;;0.30;0.30;;;4.70;99.90;;;;;;5039239;28;20052;-86
2022/11/26 01:11:37;;;;;;;1.35;0.57;;;4.00;99.90;;;;;;5039237;28;20048;-86
2022/11/26 01:14:07;;;;;;;0.80;0.63;;;5.80;99.90;;;;;;5039241;28;20059;-86
2022/11/26 01:16:37;;;;;;;0.55;0.45;;;4.80;99.90;;;;;;5038934;28;20040;-85
2022/11/26 01:19:04;;;;;;;1.90;0.50;;;3.80;99.90;;;;;;5039130;28;20052;-85
2022/11/26 01:21:33;;;;;;;0.50;0.50;;;6.00;99.90;;;;;;5038869;28;20509;-85
2022/11/26 01:24:01;;;;;;;0.30;0.25;;;4.50;99.90;;;;;;5039134;28;20475;-86
2022/11/26 01:26:37;;;;;;;0.20;0.20;;;4.50;99.90;;;;;;5038108;28;20076;-86
2022/11/26 01:29:06;;;;;;;0.50;0.50;;;5.70;99.90;;;;;;5039137;28;20048;-86
2022/11/26 01:31:35;;;;;;;0.95;0.50;;;5.70;99.90;;;;;;5055150;28;20048;-86
2022/11/26 01:34:00;;;;;;;0.38;0.38;;;4.10;99.90;;;;;;5038707;28;20121;-85
2022/11/26 01:36:38;;;;;;;1.07;0.50;;;5.70;99.90;;;;;;5038054;28;20491;-87
2022/11/26 01:39:17;;;;;;;;;;;3.40;99.90;;;;;;5055923;28;20438;-86
2022/11/26 01:42:01;;;;;;;0.35;0.30;;;4.40;99.90;;;;;;5055155;28;20381;-86
2022/11/26 01:44:30;;;;;;;1.20;0.20;;;4.30;99.90;;;;;;5037845;28;20098;-87
2022/11/26 01:46:56;;;;;;;0.60;0.30;;;4.30;99.90;;;;;;5055104;28;20088;-88
2022/11/26 01:49:23;;;;;;;0.93;0.55;;;4.20;99.90;;;;;;5038494;28;20125;-86
2022/11/26 01:52:18;;;;;;;0.70;0.50;;;5.40;99.90;;;;;;5038880;28;20048;-87
2022/11/26 01:54:46;;;;;;;0.30;0.30;;;4.00;99.90;;;;;;5038060;28;20054;-87
2022/11/26 01:57:19;;;;;;;0.85;0.73;;;5.10;99.90;;;;;;5038329;28;20044;-87
2022/11/26 01:59:51;;;;;;;0.50;0.50;;;4.60;99.90;;;;;;5038036;28;20048;-87
2022/11/26 02:02:22;;;;;;;1.10;0.52;;;3.90;99.90;;;;;;5038147;28;20139;-87
2022/11/26 02:05:23;;;;;;;0.85;0.30;;;3.90;99.90;;;;;;5038219;28;20059;-86
2022/11/26 02:07:50;;;;;;;0.50;0.47;;;3.00;99.90;;;;;;5054849;28;20072;-86
2022/11/26 02:10:16;;;;;;;;;;;3.70;99.90;;;;;;5055328;28;20044;-87
2022/11/26 02:12:42;;;;;;;0.77;0.40;;;3.70;99.90;;;;;;5037642;28;19920;-86
2022/11/26 02:15:12;;;;;;;0.50;0.32;;;3.60;99.90;;;;;;5037841;28;20083;-86
2022/11/26 02:17:51;;;;;;;0.70;0.40;;;3.60;99.90;;;;;;5021389;28;20097;-86
2022/11/26 02:20:29;;;;;;;0.40;0.40;;;3.60;99.90;;;;;;5037970;28;20044;-86
2022/11/26 02:23:00;;;;;;;0.45;0.45;;;3.60;99.90;;;;;;5038303;28;20080;-87
2022/11/26 02:25:44;;;;;;;0.70;0.38;;;3.60;99.90;;;;;;5037701;28;20091;-87
2022/11/26 02:28:28;;;;;;;0.20;0.20;;;3.50;99.90;;;;;;5054131;28;20067;-87
2022/11/26 02:31:02;;;;;;;1.20;0.70;;;3.40;99.90;;;;;;5038343;28;20076;-87
2022/11/26 02:33:55;;;;;;;0.50;0.50;;;4.30;99.90;;;;;;5037884;28;20048;-86
2022/11/26 02:36:33;;;;;;;0.70;0.55;;;3.50;99.90;;;;;;5054383;28;20044;-87
2022/11/26 02:39:18;;;;;;;0.30;0.30;;;3.50;99.90;;;;;;5054730;28;20135;-87
2022/11/26 02:41:57;;;;;;;0.95;0.50;;;3.50;99.90;;;;;;5053742;28;20044;-86
2022/11/26 02:44:27;;;;;;;0.35;0.35;;;3.60;99.90;;;;;;5022078;28;20059;-88
2022/11/26 02:47:04;;;;;;;0.50;0.50;;;5.00;99.90;;;;;;5037649;28;20040;-86
2022/11/26 02:49:32;;;;;;;0.85;0.43;;;4.60;99.90;;;;;;5037579;28;20425;-87
2022/11/26 02:52:00;;;;;;;0.52;0.30;;;5.00;99.90;;;;;;5038005;28;20045;-86
2022/11/26 02:54:30;;;;;;;0.52;0.50;;;3.70;99.90;;;;;;5054104;28;20151;-87
2022/11/26 02:57:00;;;;;;;1.55;0.40;;;4.90;99.90;;;;;;5037359;28;20041;-86
2022/11/26 02:59:29;;;;;;;0.75;0.70;;;3.50;99.90;;;;;;5054109;28;20049;-87
2022/11/26 03:02:07;;;;;;;0.38;0.38;;;3.50;99.90;;;;;;5021355;28;20052;-86
2022/11/26 03:04:39;;;;;;;0.35;0.22;;;5.00;99.90;;;;;;5053946;28;20041;-86
2022/11/26 03:07:07;;;;;;;0.40;0.40;;;3.50;99.90;;;;;;5037437;28;20098;-86
2022/11/26 03:09:56;;;;;;;1.00;0.73;;;4.60;99.90;;;;;;5054023;28;20067;-86
2022/11/26 03:12:23;;;;;;;0.30;0.30;;;4.90;99.90;;;;;;5054342;28;20142;-86
2022/11/26 03:14:48;;;;;;;0.88;0.73;;;3.60;99.90;;;;;;5037203;28;20048;-86
2022/11/26 03:17:20;;;;;;;0.67;0.67;;;3.70;99.90;;;;;;5037591;28;20040;-86
2022/11/26 03:19:49;;;;;;;0.40;0.40;;;3.80;99.90;;;;;;5053875;28;20139;-86
2022/11/26 03:22:18;;;;;;;0.47;0.47;;;4.40;99.90;;;;;;5021372;28;20048;-87
2022/11/26 03:24:44;;;;;;;0.70;0.50;;;3.70;99.90;;;;;;5037161;28;20062;-86
2022/11/26 03:27:10;;;;;;;0.60;0.60;;;3.70;99.90;;;;;;5037483;28;20123;-86
2022/11/26 03:29:35;;;;;;;1.10;0.40;;;4.60;99.90;;;;;;5020574;28;20135;-86
2022/11/26 03:32:01;;;;;;;1.63;1.30;;;3.80;99.90;;;;;;5037826;28;20098;-86
2022/11/26 03:34:27;;;;;;;1.53;0.57;;;3.70;99.90;;;;;;5053751;28;20040;-86
2022/11/26 03:36:53;;;;;;;0.47;0.47;;;4.90;99.90;;;;;;5070240;28;20139;-86
2022/11/26 03:39:19;;;;;;;0.40;0.40;;;4.90;99.90;;;;;;5037437;28;20372;-86
2022/11/26 03:41:44;;;;;;;1.07;0.70;;;4.30;99.90;;;;;;5036794;28;20070;-87
2022/11/26 03:44:11;;;;;;;0.40;0.40;;;4.80;99.90;;;;;;5054016;28;20040;-86
2022/11/26 03:46:37;;;;;;;0.30;0.30;;;4.80;99.90;;;;;;5035881;28;20087;-86
2022/11/26 03:49:03;;;;;;;0.50;0.50;;;4.40;99.90;;;;;;5021130;28;20052;-86
2022/11/26 03:51:29;;;;;;;0.83;0.20;;;5.00;99.90;;;;;;5037148;28;20514;-85
2022/11/26 03:53:54;;;;;;;1.03;0.40;;;3.50;99.90;;;;;;5040396;28;20051;-86
2022/11/26 03:56:20;;;;;;;0.30;0.30;;;4.50;99.90;;;;;;5040410;28;20044;-86
2022/11/26 03:58:46;;;;;;;0.20;0.20;;;3.60;99.90;;;;;;5040116;28;20142;-85
2022/11/26 04:01:12;;;;;;;0.30;0.30;;;3.40;99.90;;;;;;5024496;28;20110;-86
2022/11/26 04:03:39;;;;;;;0.43;0.43;;;3.70;99.90;;;;;;5024020;28;20048;-86
2022/11/26 04:06:05;;;;;;;0.10;0.10;;;4.50;99.90;;;;;;5056329;28;20135;-86
2022/11/26 04:08:31;;;;;;;0.60;0.60;;;3.50;99.90;;;;;;5040373;28;20102;-86
2022/11/26 04:11:05;;;;;;;1.43;0.90;;;4.80;99.90;;;;;;5040162;28;20044;-86
2022/11/26 04:13:31;;;;;;;0.65;0.30;;;4.80;99.90;;;;;;5057009;28;20048;-86
2022/11/26 04:15:57;;;;;;;0.40;0.40;;;3.50;99.90;;;;;;5023402;28;20127;-86
2022/11/26 04:18:26;;;;;;;0.52;0.52;;;2.90;99.90;;;;;;5040885;28;20048;-85
2022/11/26 04:20:51;;;;;;;0.90;0.40;;;3.60;99.90;;;;;;5039819;28;20055;-86
2022/11/26 04:23:20;;;;;;;1.40;0.80;;;4.70;99.90;;;;;;5040080;28;20056;-86
2022/11/26 04:25:46;;;;;;;0.70;0.70;;;3.50;99.90;;;;;;5040034;28;20088;-86
2022/11/26 04:28:13;;;;;;;0.87;0.83;;;3.40;99.90;;;;;;5039866;28;20083;-85
2022/11/26 04:30:42;;;;;;;1.30;0.50;;;4.90;99.90;;;;;;5056421;28;20131;-86
2022/11/26 04:33:08;;;;;;;0.95;0.47;;;3.50;99.90;;;;;;5040231;28;20045;-85
2022/11/26 04:35:34;;;;;;;0.40;0.40;;;4.80;99.90;;;;;;5039949;28;20056;-85
2022/11/26 04:38:03;;;;;;;2.28;1.38;;;4.90;99.90;;;;;;5056355;28;20049;-85
2022/11/26 04:40:28;;;;;;;2.40;0.57;;;3.50;99.90;;;;;;5040081;28;20055;-86
2022/11/26 04:42:56;;;;;;;0.57;0.57;;;2.60;99.90;;;;;;5039710;28;20044;-86
2022/11/26 04:45:22;;;;;;;0.32;0.30;;;4.90;99.90;;;;;;5039779;28;20056;-85
2022/11/26 04:47:48;;;;;;;0.50;0.50;;;3.50;99.90;;;;;;5055572;28;20146;-86
2022/11/26 04:50:14;;;;;;;1.03;1.03;;;3.50;99.90;;;;;;5023318;28;20083;-86
2022/11/26 04:52:39;;;;;;;0.67;0.37;;;4.50;99.90;;;;;;5056462;28;20181;-86
2022/11/26 04:55:05;;;;;;;0.10;0.10;;;3.40;99.90;;;;;;5039657;28;20049;-85
2022/11/26 04:57:36;;;;;;;0.47;0.47;;;3.50;99.90;;;;;;5056121;28;20053;-86
2022/11/26 05:00:03;;;;;;;1.90;0.95;;;4.60;99.90;;;;;;5039224;28;20044;-85
2022/11/26 05:02:29;;;;;;;0.20;0.20;;;3.40;99.90;;;;;;5039381;28;20600;-85
2022/11/26 05:04:55;;;;;;;0.93;0.70;;;4.70;99.90;;;;;;5055609;28;20143;-86
2022/11/26 05:07:20;;;;;;;0.67;0.67;;;4.20;99.90;;;;;;5039251;28;20075;-85
2022/11/26 05:09:49;;;;;;;0.57;0.57;;;3.50;99.90;;;;;;5055591;28;20060;-86
2022/11/26 05:12:15;;;;;;;0.57;0.57;;;3.40;99.90;;;;;;5022805;28;20059;-86
2022/11/26 05:14:43;;;;;;;0.40;0.40;;;3.50;99.90;;;;;;5055580;28;20041;-85
2022/11/26 05:17:09;;;;;;;0.52;0.45;;;3.70;99.90;;;;;;5039192;28;20048;-86
2022/11/26 05:19:34;;;;;;;1.80;0.30;;;4.80;99.90;;;;;;5055742;28;20505;-86
2022/11/26 05:22:00;;;;;;;0.30;0.30;;;4.60;99.90;;;;;;5038761;28;20084;-86
2022/11/26 05:24:26;;;;;;;0.40;0.33;;;4.70;99.90;;;;;;5039074;28;20110;-86
2022/11/26 05:26:51;;;;;;;2.80;0.53;;;3.40;99.90;;;;;;5021760;28;20040;-87
2022/11/26 05:29:17;;;;;;;0.37;0.37;;;4.80;99.90;;;;;;5022655;28;20044;-86
2022/11/26 05:31:48;;;;;;;1.17;0.60;;;3.50;99.90;;;;;;5055652;28;20055;-86
2022/11/26 05:34:13;;;;;;;1.33;0.32;;;4.60;99.90;;;;;;5038979;28;20135;-86
2022/11/26 05:36:44;;;;;;;0.43;0.40;;;3.40;99.90;;;;;;5055378;28;20132;-86
2022/11/26 05:39:09;;;;;;;0.25;0.25;;;4.70;99.90;;;;;;5054470;28;20048;-85
2022/11/26 05:41:35;;;;;;;1.97;1.00;;;4.70;99.90;;;;;;5055319;28;20040;-86
2022/11/26 05:44:01;;;;;;;0.60;0.47;;;4.40;99.90;;;;;;5055009;28;20475;-86
2022/11/26 05:46:27;;;;;;;0.90;0.90;;;4.90;99.90;;;;;;5034638;28;20488;-86
2022/11/26 05:48:52;;;;;;;0.70;0.63;;;4.80;99.90;;;;;;5071150;28;20123;-86
2022/11/26 05:51:18;;;;;;;1.27;0.60;;;4.60;99.90;;;;;;5054997;28;20594;-85
2022/11/26 05:53:44;;;;;;;0.57;0.50;;;4.40;99.90;;;;;;5022223;28;20050;-85
2022/11/26 05:56:12;;;;;;;0.63;0.43;;;3.50;99.90;;;;;;5054659;28;20407;-86
2022/11/26 05:58:40;;;;;;;0.68;0.40;;;3.30;99.90;;;;;;5038380;28;20040;-85
2022/11/26 06:01:12;;;;;;;0.75;0.60;;;3.30;99.90;;;;;;5054481;28;20055;-86
2022/11/26 06:03:40;;;;;;;0.80;0.80;;;3.30;99.90;;;;;;5038340;28;20538;-86
2022/11/26 06:06:06;;;;;;;0.30;0.30;;;3.40;99.90;;;;;;5038007;28;20044;-86
2022/11/26 06:08:32;;;;;;;0.60;0.60;;;3.30;99.90;;;;;;5037856;28;20159;-85
2022/11/26 06:10:58;;;;;;;0.80;0.40;;;4.40;99.90;;;;;;5037925;28;20546;-85
2022/11/26 06:13:24;;;;;;;0.73;0.50;;;4.50;99.90;;;;;;5054992;28;20136;-86
2022/11/26 06:15:49;;;;;;;0.73;0.73;;;4.70;99.90;;;;;;5021419;28;20083;-85
2022/11/26 06:18:16;;;;;;;0.63;0.40;;;2.10;99.90;;;;;;5020772;28;20052;-86
2022/11/26 06:20:44;;;;;;;1.10;0.60;;;2.80;99.90;;;;;;5054806;28;20048;-86
2022/11/26 06:23:10;;;;;;;0.73;0.50;;;4.30;99.90;;;;;;5021379;28;20106;-86
2022/11/26 06:25:39;;;;;;;0.55;0.55;;;3.30;99.90;;;;;;5038293;28;20522;-86
2022/11/26 06:28:07;;;;;;;2.28;0.50;;;4.60;99.90;;;;;;5053668;28;20052;-86
2022/11/26 06:30:33;;;;;;;1.90;0.30;;;3.40;99.90;;;;;;5070952;28;20049;-86
2022/11/26 06:32:59;;;;;;;0.47;0.47;;;4.80;99.90;;;;;;5053932;28;20083;-86
2022/11/26 06:35:25;;;;;;;0.30;0.30;;;4.80;99.90;;;;;;5038217;28;20091;-85
2022/11/26 06:37:53;;;;;;;3.03;0.47;;;3.40;99.90;;;;;;5037873;28;20048;-85
2022/11/26 06:40:21;;;;;;;1.88;0.80;;;4.80;99.90;;;;;;5054314;28;20106;-86
2022/11/26 06:42:50;;;;;;;1.40;0.93;;;3.80;99.90;;;;;;5038163;28;20051;-85
2022/11/26 06:45:17;;;;;;;0.52;0.38;;;3.50;99.90;;;;;;5037159;28;20047;-85
2022/11/26 06:47:48;;;;;;;2.58;0.85;;;3.40;99.90;;;;;;5054132;28;20422;-86
2022/11/26 06:50:16;;;;;;;1.27;0.57;;;4.50;99.90;;;;;;5054160;28;20076;-85
2022/11/26 06:52:42;;;;;;;0.55;0.55;;;3.50;99.90;;;;;;5037850;28;20122;-85
2022/11/26 06:55:08;;;;;;;1.97;0.77;;;3.50;99.90;;;;;;5037591;28;20491;-85
2022/11/26 06:57:33;;;;;;;2.00;0.60;;;3.50;99.90;;;;;;5037708;28;20402;-85
2022/11/26 06:59:59;;;;;;;1.90;0.60;;;4.00;99.90;;;;;;5020749;28;20048;-85
2022/11/26 07:02:25;;;;;;;0.70;0.60;;;4.10;99.90;;;;;;5054513;28;20040;-85
2022/11/26 07:04:50;;;;;;;1.20;0.77;;;4.60;99.90;;;;;;5021446;28;20052;-85
2022/11/26 07:07:16;;;;;;;0.53;0.53;;;3.90;99.90;;;;;;5004356;28;20642;-85
2022/11/26 07:09:42;;;;;;;0.40;0.33;;;3.60;99.90;;;;;;5020914;28;20052;-85
2022/11/26 07:12:07;;;;;;;0.93;0.37;;;3.50;99.90;;;;;;5020992;28;20491;-85
2022/11/26 07:14:34;;;;;;;2.00;0.83;;;3.50;99.90;;;;;;5054356;28;20048;-85
2022/11/26 07:16:59;;;;;;;0.50;0.47;;;3.60;99.90;;;;;;5037435;28;20049;-87
2022/11/26 07:19:25;;;;;;;0.30;0.30;;;4.80;99.90;;;;;;5054124;28;20041;-85
2022/11/26 07:21:51;;;;;;;1.27;0.80;;;3.60;99.90;;;;;;5037527;28;20499;-85
2022/11/26 07:24:19;;;;;;;0.30;0.30;;;4.20;99.90;;;;;;5037308;28;20135;-85
2022/11/26 07:26:45;;;;;;;0.80;0.63;;;5.00;99.90;;;;;;5056037;28;20062;-85
2022/11/26 07:29:11;;;;;;;0.30;0.30;;;3.60;99.90;;;;;;5023897;28;20048;-85
2022/11/26 07:31:37;;;;;;;1.90;0.70;;;3.60;99.90;;;;;;5024779;28;20094;-86
2022/11/26 07:34:02;;;;;;;0.73;0.60;;;3.60;99.90;;;;;;5041150;28;20063;-86
2022/11/26 07:36:29;;;;;;;0.67;0.37;;;3.80;99.90;;;;;;5041016;28;20078;-85
2022/11/26 07:38:57;;;;;;;0.40;0.40;;;3.60;99.90;;;;;;5057644;28;20076;-85
2022/11/26 07:41:24;;;;;;;0.75;0.70;;;4.10;99.90;;;;;;5040503;28;20055;-84
2022/11/26 07:43:50;;;;;;;;;;;3.90;99.90;;;;;;5041395;28;20136;-85
2022/11/26 07:46:19;;;;;;;0.57;0.45;;;4.70;99.90;;;;;;5040546;28;20451;-84
2022/11/26 07:48:45;;;;;;;0.50;0.50;;;4.80;99.90;;;;;;5041279;28;20451;-85
2022/11/26 07:51:21;;;;;;;0.60;0.60;;;3.90;99.90;;;;;;5029073;28;20051;-87
2022/11/26 07:53:47;;;;;;;0.98;0.30;;;3.70;99.90;;;;;;5040782;28;20110;-83
2022/11/26 07:56:13;;;;;;;2.92;0.52;;;3.80;99.90;;;;;;5056997;28;20056;-83
2022/11/26 07:58:39;;;;;;;1.02;0.98;;;4.60;99.90;;;;;;5056949;28;20045;-83
2022/11/26 08:01:16;;;;;;;2.97;0.63;;;3.80;99.90;;;;;;5024270;28;20078;-86
2022/11/26 08:03:47;;;;;;;2.17;0.52;;;3.80;99.90;;;;;;5040955;28;20086;-83
2022/11/26 08:06:15;;;;;;;0.75;0.32;;;4.90;99.90;;;;;;5040801;28;20063;-82
2022/11/26 08:08:41;;;;;;;3.92;0.55;;;5.00;99.90;;;;;;5040450;28;20037;-84
2022/11/26 08:11:27;;;;;;;0.50;0.50;;;4.20;99.90;;;;;;5055962;28;20060;-85
2022/11/26 08:13:58;;;;;;;0.95;0.60;;;3.90;99.90;;;;;;5056739;28;20512;-85
2022/11/26 08:16:24;;;;;;;1.15;0.47;;;4.00;99.90;;;;;;5057176;28;20040;-85
2022/11/26 08:18:54;;;;;;;1.77;0.67;;;4.00;99.90;;;;;;5040507;28;20182;-85
2022/11/26 08:21:21;;;;;;;1.23;0.60;;;4.00;99.90;;;;;;5039885;28;20469;-85
2022/11/26 08:23:47;;;;;;;0.77;0.43;;;4.10;99.90;;;;;;5040383;28;20053;-87
2022/11/26 08:26:14;;;;;;;0.63;0.23;;;4.90;99.90;;;;;;5024154;28;20140;-83
2022/11/26 08:28:42;;;;;;;2.78;1.08;;;4.20;99.90;;;;;;5023311;28;20525;-88
2022/11/26 08:31:09;;;;;;;1.85;0.68;;;4.50;99.90;;;;;;5057284;28;20044;-87
2022/11/26 08:33:37;;;;;;;1.77;0.40;;;5.40;99.90;;;;;;5023210;28;20089;-86
2022/11/26 08:36:04;;;;;;;1.77;1.15;;;5.40;99.90;;;;;;5057407;28;20048;-88
2022/11/26 08:38:30;;;;;;;2.28;0.88;;;4.40;99.90;;;;;;5055981;28;20041;-87
2022/11/26 08:41:06;;;;;;;0.83;0.47;;;5.80;99.90;;;;;;5039530;28;20052;-86
2022/11/26 08:43:34;;;;;;;0.57;0.38;;;4.50;99.90;;;;;;5039208;28;20048;-85
2022/11/26 08:46:00;;;;;;;1.25;0.45;;;4.40;99.90;;;;;;5039460;28;20056;-84
2022/11/26 08:48:28;;;;;;;1.17;0.43;;;4.10;99.90;;;;;;5039346;28;20049;-85
2022/11/26 08:51:10;;;;;;;1.30;0.60;;;5.60;99.90;;;;;;5040032;28;20044;-85
2022/11/26 08:53:36;;;;;;;1.00;0.43;;;5.20;99.90;;;;;;5056355;28;20041;-85
2022/11/26 08:56:08;;;;;;;1.00;0.57;;;5.60;99.90;;;;;;5040346;28;20044;-85
2022/11/26 08:58:36;;;;;;;1.15;0.32;;;4.90;99.90;;;;;;5056377;28;20056;-87
2022/11/26 09:01:08;;;;;;;0.70;0.68;;;4.40;99.90;;;;;;5039158;28;20538;-87
2022/11/26 09:03:36;;;;;;;0.57;0.47;;;6.30;99.90;;;;;;5055541;28;20051;-87
2022/11/26 09:06:06;;;;;;;0.63;0.30;;;5.00;99.90;;;;;;5039645;28;20111;-86
2022/11/26 09:08:43;;;;;;;1.55;0.90;;;5.10;99.90;;;;;;5038786;28;20103;-87
2022/11/26 09:11:11;;;;;;;0.95;0.43;;;5.70;99.90;;;;;;5039114;28;20529;-86
2022/11/26 09:13:37;;;;;;;1.13;0.47;;;5.00;99.90;;;;;;5039036;28;20055;-87
2022/11/26 09:16:05;;;;;;;1.20;0.98;;;5.30;99.90;;;;;;5038805;28;20065;-85
2022/11/26 09:18:31;;;;;;;0.60;0.35;;;5.00;99.90;;;;;;5022037;28;20491;-87
2022/11/26 09:21:01;;;;;;;0.70;0.43;;;5.10;99.90;;;;;;5022577;28;20094;-85
2022/11/26 09:23:27;;;;;;;0.63;0.63;;;4.70;99.90;;;;;;5055359;28;20087;-85
2022/11/26 09:25:56;;;;;;;2.45;0.77;;;5.20;99.90;;;;;;5039235;28;20139;-86
2022/11/26 09:28:21;;;;;;;0.85;0.38;;;6.50;99.90;;;;;;5038455;28;20045;-85
2022/11/26 09:30:57;;;;;;;0.40;0.40;;;5.00;99.90;;;;;;5055201;28;20444;-89
2022/11/26 09:33:26;;;;;;;0.98;0.70;;;4.60;99.90;;;;;;5038046;28;20427;-85
2022/11/26 09:35:52;;;;;;;1.13;0.82;;;5.30;99.90;;;;;;5055643;28;20044;-86
2022/11/26 09:38:18;;;;;;;0.40;0.40;;;5.40;99.90;;;;;;5038668;28;20387;-87
2022/11/26 09:40:59;;;;;;;1.33;1.13;;;5.40;99.90;;;;;;5038610;28;20125;-85
2022/11/26 09:43:47;;;;;;;2.38;0.75;;;5.50;99.90;;;;;;5038705;28;20387;-86
2022/11/26 09:46:24;;;;;;;2.00;1.35;;;5.60;99.90;;;;;;5037825;28;20503;-85
2022/11/26 09:49:01;;;;;;;1.58;0.63;;;5.70;99.90;;;;;;5038701;28;20053;-85
2022/11/26 09:51:32;;;;;;;;;;;5.80;99.90;;;;;;5038221;28;20045;-85
2022/11/26 09:54:00;;;;;;;1.08;0.90;;;7.30;99.90;;;;;;5038342;28;19935;-84
2022/11/26 09:56:26;;;;;;;0.70;0.70;;;7.30;99.90;;;;;;5038349;28;20055;-84
2022/11/26 09:59:10;;;;;;;0.70;0.47;;;7.20;99.90;;;;;;5054804;28;20045;-85
2022/11/26 10:01:39;;;;;;;0.52;0.40;;;5.20;99.90;;;;;;5055116;28;20047;-85
2022/11/26 10:04:23;;;;;;;0.55;0.50;;;6.20;99.90;;;;;;5055497;28;20051;-85
2022/11/26 10:07:11;;;;;;;1.08;0.57;;;7.70;99.90;;;;;;5055701;28;20037;-85
2022/11/26 10:09:46;;;;;;;0.57;0.52;;;6.30;99.90;;;;;;5038081;28;20137;-84
2022/11/26 10:12:51;;;;;;;2.25;1.23;;;6.30;99.90;;;;;;5054856;28;20487;-85
2022/11/26 10:15:16;;;;;;;0.93;0.52;;;6.30;99.90;;;;;;5038946;28;20051;-85
2022/11/26 10:18:15;;;;;;;2.70;0.60;;;7.40;99.90;;;;;;5037955;28;20045;-85
2022/11/26 10:21:08;;;;;;;0.57;0.32;;;6.40;99.90;;;;;;5038169;28;20044;-85
2022/11/26 10:23:49;;;;;;;1.80;1.17;;;6.40;99.90;;;;;;5038556;28;20041;-85
2022/11/26 10:26:19;;;;;;;1.05;0.60;;;6.50;99.90;;;;;;5038755;28;20404;-85
2022/11/26 10:28:47;;;;;;;1.20;0.98;;;6.60;99.90;;;;;;5037850;28;20037;-85
2022/11/26 10:31:22;;;;;;;1.63;1.52;;;6.70;99.90;;;;;;5055244;28;20083;-85
2022/11/26 10:33:54;;;;;;;1.50;0.70;;;6.80;99.90;;;;;;5038129;28;20084;-85
2022/11/26 10:36:31;;;;;;;0.88;0.80;;;6.90;99.90;;;;;;5055108;28;20052;-85
2022/11/26 10:38:57;;;;;;;1.55;1.25;;;6.90;99.90;;;;;;5055096;28;20092;-85
2022/11/26 10:41:26;;;;;;;2.00;0.67;;;6.90;99.90;;;;;;5038323;28;20083;-86
2022/11/26 10:44:20;;;;;;;2.38;0.80;;;6.90;99.90;;;;;;5055227;28;20080;-90
2022/11/26 10:46:58;;;;;;;1.13;0.63;;;6.90;99.90;;;;;;5037504;28;20049;-87
2022/11/26 10:49:30;;;;;;;0.63;0.63;;;6.80;99.90;;;;;;5038470;28;20053;-88
2022/11/26 10:52:27;;;;;;;2.45;0.85;;;6.90;99.90;;;;;;5027804;28;20127;-88
2022/11/26 10:55:49;;;;;;;;;;;;;;;;;;;;;
2022/11/26 10:58:20;;;;;;;0.98;0.70;;;6.80;99.90;;;;;;5024435;28;20056;-87
2022/11/26 11:00:51;;;;;;;3.15;0.85;;;6.90;99.90;;;;;;5038881;28;20044;-88
2022/11/26 11:04:08;;;;;;;2.25;1.00;;;6.90;99.90;;;;;;5042348;28;20048;-93
2022/11/26 11:06:41;;;;;;;1.92;1.35;;;7.20;99.90;;;;;;4998689;28;20053;-86
2022/11/26 11:09:35;;;;;;;4.07;1.10;;;6.90;99.90;;;;;;5041501;28;20439;-89
2022/11/26 11:12:17;;;;;;;2.03;0.63;;;5.80;99.90;;;;;;5042223;28;20055;-87
2022/11/26 11:14:44;;;;;;;1.02;0.70;;;6.30;99.90;;;;;;5041092;28;20048;-87
2022/11/26 11:17:36;;;;;;;1.50;0.70;;;6.80;99.90;;;;;;5041481;28;20040;-85
2022/11/26 11:20:17;;;;;;;2.42;1.70;;;6.90;99.90;;;;;;5041727;28;20164;-87
2022/11/26 11:22:46;;;;;;;2.75;1.08;;;6.80;99.90;;;;;;5042771;28;20494;-85
2022/11/26 11:25:56;;;;;;;1.73;1.20;;;8.10;99.90;;;;;;5077857;28;20062;-88
2022/11/26 11:28:25;;;;;;;4.55;1.13;;;7.00;99.90;;;;;;5041473;28;20044;-87
2022/11/26 11:31:21;;;;;;;1.58;0.80;;;6.90;99.90;;;;;;5040758;28;20529;-86
2022/11/26 11:33:58;;;;;;;1.45;0.60;;;7.10;99.90;;;;;;5056128;28;20044;-86
2022/11/26 11:36:27;;;;;;;0.52;0.52;;;7.00;99.90;;;;;;5041865;28;20131;-86
2022/11/26 11:39:01;;;;;;;2.55;1.35;;;6.90;99.90;;;;;;5041300;28;20055;-88
2022/11/26 11:41:29;;;;;;;2.58;0.73;;;7.00;99.90;;;;;;5041561;28;20052;-86
2022/11/26 11:44:21;;;;;;;3.50;1.20;;;7.40;99.90;;;;;;5041287;28;20049;-86
2022/11/26 11:47:22;;;;;;;2.67;0.80;;;7.00;99.90;;;;;;5040574;28;20060;-86
2022/11/26 11:50:15;;;;;;;5.30;1.90;;;7.00;99.90;;;;;;5057754;28;20070;-85
2022/11/26 11:53:00;;;;;;;3.47;0.80;;;7.00;99.90;;;;;;5040863;28;20094;-87
2022/11/26 11:55:45;;;;;;;2.60;1.23;;;7.40;99.90;;;;;;5041516;28;20078;-87
2022/11/26 11:58:25;;;;;;;2.30;0.82;;;7.00;99.90;;;;;;5041141;28;20041;-86
2022/11/26 12:01:17;;;;;;;1.83;1.73;;;7.10;99.90;;;;;;5057753;28;20040;-86
2022/11/26 12:04:08;;;;;;;1.25;1.08;;;7.10;99.90;;;;;;5041474;28;20053;-90
2022/11/26 12:06:35;;;;;;;1.67;1.15;;;7.10;99.90;;;;;;5044867;28;20080;-90
2022/11/26 12:09:19;;;;;;;1.35;0.90;;;7.10;99.90;;;;;;5040889;28;20048;-87
2022/11/26 12:11:59;;;;;;;3.13;1.23;;;7.30;99.90;;;;;;5040549;28;20101;-88
2022/11/26 12:14:41;;;;;;;2.47;1.48;;;7.20;99.90;;;;;;5040449;28;20044;-88
2022/11/26 12:17:15;;;;;;;3.67;1.38;;;7.70;99.90;;;;;;5041226;28;20075;-88
2022/11/26 12:20:00;;;;;;;3.95;1.15;;;7.20;99.90;;;;;;5040593;28;20049;-88
2022/11/26 12:22:48;;;;;;;2.13;0.82;;;7.30;99.90;;;;;;5040958;28;20049;-88
2022/11/26 12:25:34;;;;;;;3.85;1.13;;;7.30;99.90;;;;;;5041456;28;20067;-88
2022/11/26 12:28:26;;;;;;;1.80;0.70;;;7.30;99.90;;;;;;5040496;28;20549;-88
2022/11/26 12:31:07;;;;;;;2.47;1.35;;;7.30;99.90;;;;;;5024581;28;20051;-89
2022/11/26 12:34:04;;;;;;;1.90;0.88;;;7.30;99.90;;;;;;5041160;28;20114;-95
2022/11/26 12:36:44;;;;;;;1.58;1.25;;;7.40;99.90;;;;;;5057446;28;20040;-88
2022/11/26 12:39:45;;;;;;;1.20;0.82;;;7.40;99.90;;;;;;5041267;28;20507;-89
2022/11/26 12:43:16;;;;;;;1.90;0.88;;;7.40;99.90;;;;;;5057297;28;20174;-87
2022/11/26 12:45:46;;;;;;;3.30;0.98;;;7.30;99.90;;;;;;5040121;28;20055;-91
2022/11/26 12:48:26;;;;;;;1.55;1.08;;;7.40;99.90;;;;;;5039622;28;20053;-87
2022/11/26 12:51:09;;;;;;;2.35;1.27;;;7.40;99.90;;;;;;5039668;28;20045;-88
2022/11/26 12:53:46;;;;;;;2.40;0.60;;;7.40;99.90;;;;;;5040472;28;20044;-89
2022/11/26 12:56:29;;;;;;;2.38;1.10;;;7.40;99.90;;;;;;5040187;28;20072;-89
2022/11/26 12:59:11;;;;;;;2.78;1.58;;;7.40;99.90;;;;;;5040059;28;20151;-88
2022/11/26 13:01:37;;;;;;;2.22;1.40;;;7.50;99.90;;;;;;5056987;28;20060;-88
2022/11/26 13:04:03;;;;;;;1.97;1.00;;;7.60;99.90;;;;;;5039484;28;20048;-88
2022/11/26 13:06:46;;;;;;;3.17;1.17;;;7.50;99.90;;;;;;5057472;28;20102;-88
2022/11/26 13:09:43;;;;;;;2.13;0.77;;;7.50;99.90;;;;;;5041384;28;20049;-91
2022/11/26 13:12:44;;;;;;;1.50;1.13;;;7.50;99.90;;;;;;5040010;28;20058;-88
2022/11/26 13:15:36;;;;;;;3.72;1.67;;;7.20;99.90;;;;;;5039036;28;20052;-88
2022/11/26 13:18:03;;;;;;;1.40;0.70;;;7.60;99.90;;;;;;5045876;28;20103;-88
2022/11/26 13:20:51;;;;;;;1.02;0.73;;;7.60;99.90;;;;;;5040101;28;20044;-88
2022/11/26 13:23:42;;;;;;;1.67;1.25;;;7.60;99.90;;;;;;5059074;28;20143;-88
2022/11/26 13:26:56;;;;;;;2.38;0.88;;;7.50;99.90;;;;;;5045286;28;20052;-87
2022/11/26 13:30:00;;;;;;;1.02;0.73;;;7.60;99.90;;;;;;5032804;28;20131;-88